createdAt,value
2022-07-30T00:00:54.015Z,15.4
2022-07-30T00:06:17.835Z,15.2
2022-07-30T00:11:45.990Z,15.4
2022-07-30T00:17:38.370Z,15.5
2022-07-30T00:23:22.600Z,15.7
2022-07-30T00:28:51.107Z,15.5
2022-07-30T00:34:19.655Z,15.5
2022-07-30T00:40:04.556Z,15.8
2022-07-30T00:45:14.710Z,16
2022-07-30T00:50:56.463Z,16.1
2022-07-30T00:56:38.384Z,16.1
2022-07-30T01:02:02.516Z,15.8
2022-07-30T01:07:56.177Z,15.4
2022-07-30T01:13:35.514Z,15.2
2022-07-30T01:18:51.973Z,15.3
2022-07-30T01:24:38.271Z,15.5
2022-07-30T01:29:56.318Z,15.4
2022-07-30T01:35:34.010Z,15.5
2022-07-30T01:41:08.055Z,15.4
2022-07-30T01:47:01.843Z,15.4
2022-07-30T01:52:18.794Z,15.7
2022-07-30T01:57:45.070Z,15.5
2022-07-30T02:03:41.009Z,15.1
2022-07-30T02:09:10.542Z,15.3
2022-07-30T02:14:57.180Z,15.3
2022-07-30T02:20:07.933Z,15.1
2022-07-30T02:25:55.470Z,15
2022-07-30T02:31:19.976Z,15.1
2022-07-30T02:37:12.349Z,15.2
2022-07-30T02:42:35.663Z,15.2
2022-07-30T02:48:02.282Z,15.1
2022-07-30T02:53:51.820Z,15.2
2022-07-30T02:59:33.568Z,15.4
2022-07-30T03:04:55.615Z,15.4
2022-07-30T03:10:27.649Z,15.1
2022-07-30T03:16:01.288Z,15.2
2022-07-30T03:21:47.310Z,15.3
2022-07-30T03:27:20.289Z,15
2022-07-30T03:32:54.206Z,14.9
2022-07-30T03:38:33.258Z,14.9
2022-07-30T03:43:56.763Z,14.6
2022-07-30T03:49:42.936Z,14.9
2022-07-30T03:55:02.073Z,15
2022-07-30T04:00:53.517Z,14.8
2022-07-30T04:06:30.489Z,14.8
2022-07-30T04:11:57.325Z,14.9
2022-07-30T04:17:38.148Z,15.1
2022-07-30T04:23:12.545Z,15.3
2022-07-30T04:28:30.258Z,15.3
2022-07-30T04:34:04.710Z,15
2022-07-30T04:39:33.618Z,15.4
2022-07-30T04:45:29.690Z,16.3
2022-07-30T04:50:48.094Z,16.7
2022-07-30T04:56:41.772Z,17.3
2022-07-30T05:01:50.849Z,16.8
2022-07-30T05:07:39.653Z,17
2022-07-30T05:13:22.252Z,16.2
2022-07-30T05:18:50.302Z,15.8
2022-07-30T05:24:23.098Z,16.1
2022-07-30T05:29:44.265Z,16.1
2022-07-30T05:35:41.492Z,16.4
2022-07-30T05:41:04.649Z,16.7
2022-07-30T05:46:49.414Z,16.9
2022-07-30T05:52:25.391Z,17.1
2022-07-30T05:57:44.338Z,17.3
2022-07-30T06:03:15.614Z,18.1
2022-07-30T06:09:13.867Z,18.1
2022-07-30T06:14:39.761Z,18.3
2022-07-30T06:20:17.811Z,18.3
2022-07-30T06:25:45.609Z,18.2
2022-07-30T06:31:16.243Z,18.7
2022-07-30T06:36:53.132Z,18.9
2022-07-30T06:42:47.849Z,19.3
2022-07-30T06:48:22.642Z,19.9
2022-07-30T06:54:01.921Z,19.9
2022-07-30T06:59:56.853Z,19.6
2022-07-30T07:04:50.239Z,19.7
2022-07-30T07:10:54.784Z,19.5
2022-07-30T07:16:16.205Z,19.5
2022-07-30T07:21:44.307Z,19.6
2022-07-30T07:27:33.642Z,20.8
2022-07-30T07:32:54.224Z,20.4
2022-07-30T07:38:44.288Z,21.1
2022-07-30T07:44:06.398Z,21.5
2022-07-30T07:50:08.622Z,22.5
2022-07-30T07:55:35.174Z,23.1
2022-07-30T08:01:11.755Z,21.5
2022-07-30T08:06:37.802Z,23
2022-07-30T08:12:37.406Z,22.6
2022-07-30T08:17:48.060Z,21.8
2022-07-30T08:23:44.384Z,22.6
2022-07-30T08:34:49.578Z,22.8
2022-07-30T08:40:47.038Z,24.2
2022-07-30T08:46:15.801Z,23.6
2022-07-30T08:51:43.419Z,24.5
2022-07-30T08:57:41.791Z,24.6
2022-07-30T09:03:13.449Z,23.7
2022-07-30T09:08:52.275Z,24.7
2022-07-30T09:14:30.926Z,23.9
2022-07-30T09:20:08.617Z,25.1
2022-07-30T09:25:44.216Z,24.6
2022-07-30T09:31:11.903Z,25
2022-07-30T09:36:48.191Z,25.4
2022-07-30T09:42:42.247Z,24.3
2022-07-30T09:48:24.293Z,25.4
2022-07-30T09:53:42.007Z,26.1
2022-07-30T09:59:39.874Z,25.5
2022-07-30T10:05:14.041Z,24.3
2022-07-30T10:10:51.867Z,24
2022-07-30T10:16:34.697Z,24.7
2022-07-30T10:22:00.471Z,25.1
2022-07-30T10:27:50.546Z,25.2
2022-07-30T10:33:34.366Z,24.9
2022-07-30T10:39:12.650Z,24.8
2022-07-30T10:44:29.180Z,24.8
2022-07-30T10:50:32.007Z,24.9
2022-07-30T10:56:04.225Z,25
2022-07-30T11:01:39.546Z,24.8
2022-07-30T11:06:58.955Z,24.9
2022-07-30T11:12:40.244Z,25.4
2022-07-30T11:18:25.359Z,26
2022-07-30T11:24:17.419Z,26.8
2022-07-30T11:29:51.098Z,27.1
2022-07-30T11:35:19.967Z,26.9
2022-07-30T11:40:54.499Z,26.3
2022-07-30T11:46:54.280Z,26.9
2022-07-30T11:52:12.627Z,26.3
2022-07-30T11:58:01.034Z,26.4
2022-07-30T12:03:42.917Z,25.8
2022-07-30T12:09:10.943Z,25.5
2022-07-30T12:15:03.495Z,25.4
2022-07-30T12:20:31.263Z,25.4
2022-07-30T12:26:09.650Z,26.4
2022-07-30T12:31:43.795Z,26.3
2022-07-30T12:37:30.216Z,26.8
2022-07-30T12:48:39.916Z,26.6
2022-07-30T12:54:13.322Z,26.3
2022-07-30T13:00:06.588Z,26.4
2022-07-30T13:05:31.289Z,27.1
2022-07-30T13:11:21.411Z,26.1
2022-07-30T13:17:05.033Z,26.1
2022-07-30T13:22:23.225Z,26.4
2022-07-30T13:27:59.263Z,26.4
2022-07-30T13:33:39.427Z,26.8
2022-07-30T13:39:41.053Z,26.7
2022-07-30T13:45:09.934Z,26.6
2022-07-30T13:50:40.639Z,25.9
2022-07-30T13:56:22.776Z,26.5
2022-07-30T14:01:58.804Z,26.3
2022-07-30T14:07:45.617Z,25.9
2022-07-30T14:13:21.588Z,26.1
2022-07-30T14:18:59.732Z,26.3
2022-07-30T14:24:16.989Z,26.2
2022-07-30T14:30:06.899Z,26.1
2022-07-30T14:35:53.336Z,26.4
2022-07-30T14:41:21.079Z,26
2022-07-30T14:46:51.857Z,26.4
2022-07-30T14:52:23.487Z,27.1
2022-07-30T14:58:20.773Z,26.8
2022-07-30T15:03:38.175Z,26.9
2022-07-30T15:09:18.538Z,26.7
2022-07-30T15:14:56.684Z,26.1
2022-07-30T15:20:44.766Z,26
2022-07-30T15:26:32.189Z,26.4
2022-07-30T15:32:05.621Z,27.6
2022-07-30T15:37:36.803Z,27.5
2022-07-30T15:43:08.642Z,28.1
2022-07-30T15:48:44.158Z,28.5
2022-07-30T15:54:23.700Z,28.3
2022-07-30T16:00:22.301Z,27
2022-07-30T16:05:51.819Z,27.6
2022-07-30T16:11:27.359Z,27.6
2022-07-30T16:17:04.192Z,26.8
2022-07-30T16:22:44.244Z,27.1
2022-07-30T16:28:33.778Z,26.9
2022-07-30T16:33:58.586Z,26.7
2022-07-30T16:39:27.170Z,26.3
2022-07-30T16:45:05.687Z,26.2
2022-07-30T16:50:37.268Z,26
2022-07-30T16:56:40.687Z,25
2022-07-30T17:02:03.958Z,24.4
2022-07-30T17:07:50.391Z,24.8
2022-07-30T17:13:30.145Z,24.9
2022-07-30T17:18:42.179Z,24.5
2022-07-30T17:24:18.633Z,24.5
2022-07-30T17:29:59.987Z,24.4
2022-07-30T17:35:43.249Z,25.4
2022-07-30T17:41:28.162Z,27.2
2022-07-30T17:46:42.680Z,28.1
2022-07-30T17:52:40.097Z,26.4
2022-07-30T17:58:16.030Z,26.5
2022-07-30T18:03:37.369Z,25.6
2022-07-30T18:09:41.094Z,25.3
2022-07-30T18:14:59.207Z,25.1
2022-07-30T18:20:35.464Z,24.9
2022-07-30T18:26:13.557Z,23.8
2022-07-30T18:31:56.463Z,23.3
2022-07-30T18:37:43.119Z,23.7
2022-07-30T18:43:09.176Z,24
2022-07-30T18:48:49.716Z,23.9
2022-07-30T18:54:10.926Z,22.6
2022-07-30T18:59:43.916Z,22.8
2022-07-30T19:05:34.708Z,22.1
2022-07-30T19:11:15.202Z,21.6
2022-07-30T19:16:36.871Z,21.5
2022-07-30T19:22:29.695Z,22.2
2022-07-30T19:27:53.446Z,22
2022-07-30T19:33:41.545Z,21.4
2022-07-30T19:38:56.551Z,21.5
2022-07-30T19:44:40.642Z,20.3
2022-07-30T19:50:27.289Z,20.8
2022-07-30T19:55:40.446Z,21.6
2022-07-30T20:01:41.322Z,21.4
2022-07-30T20:07:08.499Z,21.2
2022-07-30T20:12:49.330Z,21.3
2022-07-30T20:18:03.242Z,21
2022-07-30T20:23:39.571Z,20.8
2022-07-30T20:29:26.767Z,20.7
2022-07-30T20:35:08.842Z,21
2022-07-30T20:40:24.462Z,21.2
2022-07-30T20:46:12.048Z,21.1
2022-07-30T20:51:58.789Z,21.2
2022-07-30T20:57:44.596Z,20.9
2022-07-30T21:02:53.535Z,20.5
2022-07-30T21:08:37.399Z,20.2
2022-07-30T21:14:23.484Z,20.2
2022-07-30T21:19:52.052Z,19.6
2022-07-30T21:26:00.175Z,19.6
2022-07-30T21:30:57.717Z,20.3
2022-07-30T21:36:49.571Z,20.2
2022-07-30T21:42:08.702Z,19.9
2022-07-30T21:47:49.835Z,19.7
2022-07-30T21:53:26.345Z,19.8
2022-07-30T21:58:56.070Z,19.5
2022-07-30T22:04:22.356Z,19.3
2022-07-30T22:09:53.932Z,19
2022-07-30T22:15:48.347Z,19.6
2022-07-30T22:21:31.967Z,20.1
2022-07-30T22:27:09.745Z,18.7
2022-07-30T22:32:15.920Z,18
2022-07-30T22:37:52.869Z,17.8
2022-07-30T22:43:41.101Z,17.8
2022-07-30T22:49:23.510Z,17.7
2022-07-30T22:54:44.409Z,17.9
2022-07-30T23:00:27.556Z,18.5
2022-07-30T23:05:57.267Z,18.8
2022-07-30T23:11:25.761Z,18.5
2022-07-30T23:17:25.117Z,18.7
2022-07-30T23:22:51.991Z,18.4
2022-07-30T23:28:34.541Z,18.1
2022-07-30T23:34:06.247Z,17.9
2022-07-30T23:39:45.045Z,17.8
2022-07-30T23:45:05.464Z,17.5
2022-07-30T23:50:52.722Z,17.2
2022-07-30T23:56:10.108Z,16.9
